This is the latest recevied weather packets stored in our database for station/object KQ4NAL. If no packets are shown the sender has not sent any weather packets the latest 10 day(s).
| Time | Temp. | Humidity | Pressure | Rain* | Wind** | Luminosity | Snow |
|---|---|---|---|---|---|---|---|
| 1778013132 | 16.67° C | 94% | 1009.8 hPa | 4.83 mm | - | 63 W/m² | - |
| 1778012828 | 16.67° C | 93% | 1009.9 hPa | 3.05 mm | - | 46 W/m² | - |
| 1778012524 | 16.67° C | 92% | 1009.6 hPa | 1.27 mm | - | 58 W/m² | - |
| 1778012220 | 16.67° C | 91% | 1009.6 hPa | 1.27 mm | - | 72 W/m² | - |
| 1778011919 | 17.22° C | 89% | 1009.8 hPa | 0 mm | - | 59 W/m² | - |
| 1778011617 | 17.78° C | 87% | 1009.6 hPa | 0 mm | - | 84 W/m² | - |
| 1778011313 | 18.33° C | 84% | 1009.7 hPa | 0 mm | - | 83 W/m² | - |
| 1778011009 | 20° C | 76% | 1009.8 hPa | 0 mm | - | 34 W/m² | - |
| 1778010706 | 20.56° C | 69% | 1009.4 hPa | 0 mm | - | 34 W/m² | - |
| 1778010404 | 20.56° C | 69% | 1009.1 hPa | 0 mm | - | 52 W/m² | - |
| 1778010100 | 20.56° C | 68% | 1009.1 hPa | 0 mm | - | 111 W/m² | - |
| 1778009796 | 21.11° C | 68% | 1009.1 hPa | 0 mm | - | 135 W/m² | - |
| 1778009493 | 21.11° C | 68% | 1009.4 hPa | 0 mm | - | 186 W/m² | - |
| 1778009192 | 21.11° C | 67% | 1009.5 hPa | 0 mm | - | 260 W/m² | - |
| 1778008889 | 21.11° C | 68% | 1009.5 hPa | 0 mm | - | 146 W/m² | - |
| 1778008588 | 21.11° C | 68% | 1009.7 hPa | 0 mm | - | 275 W/m² | - |
| 1778008285 | 21.11° C | 67% | 1009.4 hPa | 0 mm | - | 351 W/m² | - |
| 1778007981 | 21.11° C | 68% | 1009.7 hPa | 0 mm | - | 291 W/m² | - |
| 1778007676 | 21.11° C | 67% | 1009.5 hPa | 0 mm | - | 332 W/m² | - |
| 1778007373 | 21.11° C | 69% | 1009.5 hPa | 0 mm | - | 336 W/m² | - |
| 1778007069 | 20.56° C | 68% | 1009.7 hPa | 0 mm | - | 263 W/m² | - |
| 1778006766 | 20.56° C | 69% | 1009.8 hPa | 0 mm | - | 206 W/m² | - |
| 1778006462 | 20.56° C | 68% | 1009.8 hPa | 0 mm | - | 157 W/m² | - |
| 1778006159 | 20.56° C | 69% | 1009.8 hPa | 0 mm | - | 146 W/m² | - |
| 1778005857 | 20.56° C | 68% | 1010.1 hPa | 0 mm | - | 161 W/m² | - |
* Rain latest hour (hover to see other rain measurements)
** Current wind speed in m/s (hover to see current wind gust speed)